Portada
METAR-TAF:

METAR-TAF

Aeroports :

Lampang, Tailàndia

latitud: 18-17N, longitud: 099-31E, altitud: 241 m

Observació

L'informe es va fer fa 25 minuts, a les 07:00 UTC
Vent 7 kt del Sud, variant entre Est/Sud-Est i Oest/Sud-Oest
Temperatura 35°C
Humitat 30%
Pressió 1010 hPa
Visibilitat: 7000 m
Escasses núvols a una alçada de 3500 ft

METAR: VTCL 280700Z 18007KT 120V240 7000 FEW035 35/15 Q1010 NOSIG

Hora: 14:25 (07:25 UTC)

Pronòstic

L'informe es va fer fa 2 hores i 25 minuts, a les 05:00 UTC
Pronòstic vàlid del 28 a les 06 UTC al 29 a les 06 UTC
Vent 6 kt del Sud
Visibilitat: 8000 m
Escasses núvols a una alçada de 3500 ft

TAF: VTCL 280500Z 2806/2906 17006KT 8000 FEW035

Observacions i pronòstics meteorològics de més de 4000 aeroports (METAR i TAF).

Les estacions disponibles són els punts grocs i vermells al mapa.

Posi el ratolí al punt desitjat per veure el nom de l'estació.

Feu clic per veure les observacions i els pronòstics meteorològics.

Per canviar el mapa: feu clic els botons verds amb una creu de color negre per apropar; al botó verd amb un guió per allunyar la imatge; o en les fletxes verdes per a mapes adjacents.


METAR-TAF: